West Navigator — 3ERR2 — position and weather

sailwx.info

Track history (hours):
 
Tides and Currents Weather Stations Pressure Air Temp Water Temp Dewpoint Dewpoint Depression Visibility Wind Speed Wind Dir Waves Ship Positions

West Navigator

Last reported at 2015-Mar-29 09:00 UTC. Time now 2015-Mar-29 12:29 UTC.
Position N 60°42' E 005°06'.

Length 253 m; draft 15 m.

Type: Other ship. MMSI: 370144000.

Wind from 240 at 4 knots

Waves 1.0 meters (3 feet), 13 second period

Barometer 985.1 mb
Air temperature 5.7 ° C
Dewpoint 2.6 ° C

Date/timePositionNaut miles runAvg speedWind from/ knotsBaromVisibWave heightAir tempDewpointWater temp
2015-Mar-29 09:00N 60°42' E 005°06'0 0.0 240 / 4985.1 1.0 5.7 2.6
2015-Mar-29 06:00N 60°42' E 005°06'0 0.0 200 / 8985.6 0.5 5.0 3.8
2015-Mar-29 03:00N 60°42' E 005°06'0 0.0 200 / 8985.6 0.5 5.4 3.8
2015-Mar-29 00:00N 60°42' E 005°06'0 0.0 170 / 24983.6 0.5 5.1 4.3
2015-Mar-28 21:00N 60°42' E 005°06'0 0.0 130 / 17984.2 0.5 5.2 3.0
2015-Mar-28 09:00N 60°42' E 005°06'0 0.0 160 / 161005.9 1.0 5.9 1.6
2015-Mar-28 06:00N 60°42' E 005°06'0 0.0 170 / 201008.6 0.5 4.7 2.8
2015-Mar-28 03:00N 60°42' E 005°06'0 0.0 160 / 161010.5 0.5 4.6 3.7
2015-Mar-28 00:00N 60°42' E 005°06'0 0.0 160 / 131011.9 0.5 4.1 3.6
2015-Mar-27 18:00N 60°42' E 005°06'0 0.0 190 / 91011.3 1.0 3.7 2.9
2015-Mar-27 15:00N 60°42' E 005°06'0 0.0 200 / 111010.1 0.5 5.5 2.1
2015-Mar-27 06:00N 60°42' E 005°06'0 0.0 020 / 11009.3 1.5 1.4-1.5
2015-Mar-27 00:00N 60°42' E 005°06'0 0.0 010 / 41007.0 0.5 1.8-2.1
2015-Mar-26 21:00N 60°42' E 005°06'0 0.0 020 / 31005.7 0.5 3.2-0.4
2015-Mar-26 18:00N 60°42' E 005°06'0 0.0 310 / 41004.1 2.0 3.6-2.6
2015-Mar-26 15:00N 60°42' E 005°06'0 0.0 160 / 51002.7 0.5 4.5-6.3
2015-Mar-26 12:00N 60°42' E 005°06'0 0.0 120 / 101002.7 0.5 4.1-5.1
2015-Mar-26 09:00N 60°42' E 005°06'0 0.0 120 / 121003.6 0.5 2.1-4.5
2015-Mar-26 06:00N 60°42' E 005°06'0 0.0 110 / 121004.6 0.5 3.9-4.5
2015-Mar-26 03:00N 60°42' E 005°06'0 0.0 110 / 51007.6 0.5 4.8-5.7
2015-Mar-26 00:00N 60°42' E 005°06'0 0.0 090 / 81010.8 0.5 4.4-5.0
2015-Mar-25 21:00N 60°42' E 005°06'0 0.0 100 / 91012.9 0.5 5.1-4.3
2015-Mar-25 18:00N 60°42' E 005°06'0 0.0 110 / 71013.5 0.5 6.4-3.5
2015-Mar-25 15:00N 60°42' E 005°06'0 0.0 120 / 91013.6 0.5 8.3-4.4
2015-Mar-25 12:00N 60°42' E 005°06'0 0.0 130 / 71014.3 0.5 8.1-3.4
2015-Mar-25 09:00N 60°42' E 005°06'0 0.0 180 / 41014.0 1.0 6.7-3.7
2015-Mar-25 06:00N 60°42' E 005°06'0 0.0 020 / 41012.8 2.0 3.1-2.6
2015-Mar-25 00:00N 60°42' E 005°06'0 0.0 030 / 51011.6 1.0 3.5-0.3
2015-Mar-24 21:00N 60°42' E 005°06'0 0.0 010 / 51011.1 1.5 3.3 1.3
2015-Mar-24 15:00N 60°42' E 005°06'0 0.0 310 / 41009.3 1.0 5.8 2.1
2015-Mar-24 09:00N 60°42' E 005°06'0 0.0 130 / 61007.6 0.5 4.5 2.8
2015-Mar-24 06:00N 60°42' E 005°06'0 0.0 110 / 51006.2 0.5 3.2 2.6
2015-Mar-24 03:00N 60°42' E 005°06'0 0.0 120 / 61004.8 0.5 3.4 2.7
2015-Mar-24 00:00N 60°42' E 005°06'0 0.0 120 / 61004.4 0.5 3.6 2.9
2015-Mar-23 21:00N 60°42' E 005°06'0 0.0 140 / 11004.0 1.5 3.8 2.4
2015-Mar-23 18:00N 60°42' E 005°06'0 0.0 290 / 31002.5 1.0 5.0 3.2
2015-Mar-23 15:00N 60°42' E 005°06'0 0.0 280 / 91001.1 0.5 6.8 3.0
2015-Mar-23 12:00N 60°42' E 005°06'0 0.0 260 / 101000.2 0.5 7.6 4.3
2015-Mar-23 09:00N 60°42' E 005°06'0 0.0 230 / 13998.4 1.0 6.8 6.5
2015-Mar-23 06:00N 60°42' E 005°06'0 0.0 190 / 20998.4 0.5 6.0 5.8
2015-Mar-23 03:00N 60°42' E 005°06'0 0.0 170 / 191001.0 0.5 5.8 5.6
2015-Mar-23 00:00N 60°42' E 005°06'0 0.0 170 / 211004.1 0.5 5.6 5.6
2015-Mar-22 21:00N 60°42' E 005°06'0 0.0 160 / 191007.5 0.5 5.2 5.2
2015-Mar-22 18:00N 60°42' E 005°06'0 0.0 160 / 191010.9 0.5 4.5 4.5
2015-Mar-22 15:00N 60°42' E 005°06'0 0.0 160 / 211013.7 0.5 3.3 2.7
2015-Mar-22 12:10N 60°42' E 005°06'0 0.0 160 / 201017.5 0.5 2.7 2.1
2015-Mar-22 09:00N 60°42' E 005°06'0 0.0 150 / 161020.5 0.5 1.5 1.3
2015-Mar-22 06:00N 60°42' E 005°06'0 0.0 170 / 161021.5 0.5 3.8 3.0
2015-Mar-22 03:00N 60°42' E 005°06'0 0.0 200 / 131022.9 0.5 5.0 3.7
2015-Mar-22 00:00N 60°42' E 005°06'0 0.0 160 / 211025.4 0.5 2.8-1.5
2015-Mar-21 21:10N 60°42' E 005°06'0 0.0 160 / 151026.7 1.0 3.9-6.1
2015-Mar-21 18:00N 60°42' E 005°06'0 0.0 160 / 101027.9 1.0 4.4-6.1
2015-Mar-21 15:00N 60°42' E 005°06'0 0.0 130 / 61027.4 0.5 5.1-12.6
2015-Mar-21 12:00N 60°42' E 005°06'0 0.0 110 / 81026.9 1.0 5.4-14.5
2015-Mar-21 09:00N 60°42' E 005°06'0 0.0 090 / 51025.6 1.0 6.1-7.1
2015-Mar-21 06:00N 60°42' E 005°06'0 0.0 040 / 101022.7 0.5 3.7-2.5
2015-Mar-21 03:00N 60°42' E 005°06'0 0.0 020 / 151018.4 0.5 4.4-1.0
2015-Mar-21 00:00N 60°42' E 005°06'0 0.0 010 / 131015.9 0.5 4.6 1.7
2015-Mar-20 21:10N 60°42' E 005°06'0 0.0 010 / 101014.0 1.0 5.3 3.2
2015-Mar-20 18:00N 60°42' E 005°06'0 0.0 010 / 71012.2 1.0 5.9 3.9
2015-Mar-20 15:00N 60°42' E 005°06'0 0.0 110 / 71011.8 0.5 5.8 5.8
2015-Mar-20 12:00N 60°42' E 005°06'0 0.0 120 / 81013.7 0.5 5.8 5.8
2015-Mar-20 09:00N 60°42' E 005°06'0 0.0 120 / 111016.3 0.5 5.2 5.2
2015-Mar-20 06:00N 60°42' E 005°06'0 0.0 230 / 71019.0 0.5 6.1 6.1
2015-Mar-20 03:00N 60°42' E 005°06'0 0.0 160 / 101020.9 0.5 5.3 5.3
2015-Mar-20 00:00N 60°42' E 005°06'0 0.0 200 / 71023.9 0.5 5.9 5.9
2015-Mar-19 21:00N 60°42' E 005°06'0 0.0 150 / 101026.0 0.5 5.4 5.4
2015-Mar-19 18:00N 60°42' E 005°06'0 0.0 190 / 111027.4 0.5 5.6 5.5
2015-Mar-19 15:00N 60°42' E 005°06'0 0.0 220 / 81029.0 0.5 6.2 6.2
2015-Mar-19 09:00N 60°42' E 005°06'   190 / 81031.6 1.0 5.5 5.2
Track history (hours):
 
Tides and Currents Weather Stations Pressure Air Temp Water Temp Dewpoint Dewpoint Depression Visibility Wind Speed Wind Dir Waves Ship Positions

West Navigator

Last reported at 2015-Mar-29 09:00 UTC. Time now 2015-Mar-29 12:29 UTC.
Position N 60°42' E 005°06'.

Length 253 m; draft 15 m.

Type: Other ship. MMSI: 370144000.

Wind from 240 at 4 knots

Waves 1.0 meters (3 feet), 13 second period

Barometer 985.1 mb
Air temperature 5.7 ° C
Dewpoint 2.6 ° C

Date/timePositionNaut miles runAvg speedWind from/ knotsBaromVisibWave heightAir tempDewpointWater temp
2015-Mar-29 09:00N 60°42' E 005°06'0 0.0 240 / 4985.1 1.0 5.7 2.6
2015-Mar-29 06:00N 60°42' E 005°06'0 0.0 200 / 8985.6 0.5 5.0 3.8
2015-Mar-29 03:00N 60°42' E 005°06'0 0.0 200 / 8985.6 0.5 5.4 3.8
2015-Mar-29 00:00N 60°42' E 005°06'0 0.0 170 / 24983.6 0.5 5.1 4.3
2015-Mar-28 21:00N 60°42' E 005°06'0 0.0 130 / 17984.2 0.5 5.2 3.0
2015-Mar-28 09:00N 60°42' E 005°06'0 0.0 160 / 161005.9 1.0 5.9 1.6
2015-Mar-28 06:00N 60°42' E 005°06'0 0.0 170 / 201008.6 0.5 4.7 2.8
2015-Mar-28 03:00N 60°42' E 005°06'0 0.0 160 / 161010.5 0.5 4.6 3.7
2015-Mar-28 00:00N 60°42' E 005°06'0 0.0 160 / 131011.9 0.5 4.1 3.6
2015-Mar-27 18:00N 60°42' E 005°06'0 0.0 190 / 91011.3 1.0 3.7 2.9
2015-Mar-27 15:00N 60°42' E 005°06'0 0.0 200 / 111010.1 0.5 5.5 2.1
2015-Mar-27 06:00N 60°42' E 005°06'0 0.0 020 / 11009.3 1.5 1.4-1.5
2015-Mar-27 00:00N 60°42' E 005°06'0 0.0 010 / 41007.0 0.5 1.8-2.1
2015-Mar-26 21:00N 60°42' E 005°06'0 0.0 020 / 31005.7 0.5 3.2-0.4
2015-Mar-26 18:00N 60°42' E 005°06'0 0.0 310 / 41004.1 2.0 3.6-2.6
2015-Mar-26 15:00N 60°42' E 005°06'0 0.0 160 / 51002.7 0.5 4.5-6.3
2015-Mar-26 12:00N 60°42' E 005°06'0 0.0 120 / 101002.7 0.5 4.1-5.1
2015-Mar-26 09:00N 60°42' E 005°06'0 0.0 120 / 121003.6 0.5 2.1-4.5
2015-Mar-26 06:00N 60°42' E 005°06'0 0.0 110 / 121004.6 0.5 3.9-4.5
2015-Mar-26 03:00N 60°42' E 005°06'0 0.0 110 / 51007.6 0.5 4.8-5.7
2015-Mar-26 00:00N 60°42' E 005°06'0 0.0 090 / 81010.8 0.5 4.4-5.0
2015-Mar-25 21:00N 60°42' E 005°06'0 0.0 100 / 91012.9 0.5 5.1-4.3
2015-Mar-25 18:00N 60°42' E 005°06'0 0.0 110 / 71013.5 0.5 6.4-3.5
2015-Mar-25 15:00N 60°42' E 005°06'0 0.0 120 / 91013.6 0.5 8.3-4.4
2015-Mar-25 12:00N 60°42' E 005°06'0 0.0 130 / 71014.3 0.5 8.1-3.4
2015-Mar-25 09:00N 60°42' E 005°06'0 0.0 180 / 41014.0 1.0 6.7-3.7
2015-Mar-25 06:00N 60°42' E 005°06'0 0.0 020 / 41012.8 2.0 3.1-2.6
2015-Mar-25 00:00N 60°42' E 005°06'0 0.0 030 / 51011.6 1.0 3.5-0.3
2015-Mar-24 21:00N 60°42' E 005°06'0 0.0 010 / 51011.1 1.5 3.3 1.3
2015-Mar-24 15:00N 60°42' E 005°06'0 0.0 310 / 41009.3 1.0 5.8 2.1
2015-Mar-24 09:00N 60°42' E 005°06'0 0.0 130 / 61007.6 0.5 4.5 2.8
2015-Mar-24 06:00N 60°42' E 005°06'0 0.0 110 / 51006.2 0.5 3.2 2.6
2015-Mar-24 03:00N 60°42' E 005°06'0 0.0 120 / 61004.8 0.5 3.4 2.7
2015-Mar-24 00:00N 60°42' E 005°06'0 0.0 120 / 61004.4 0.5 3.6 2.9
2015-Mar-23 21:00N 60°42' E 005°06'0 0.0 140 / 11004.0 1.5 3.8 2.4
2015-Mar-23 18:00N 60°42' E 005°06'0 0.0 290 / 31002.5 1.0 5.0 3.2
2015-Mar-23 15:00N 60°42' E 005°06'0 0.0 280 / 91001.1 0.5 6.8 3.0
2015-Mar-23 12:00N 60°42' E 005°06'0 0.0 260 / 101000.2 0.5 7.6 4.3
2015-Mar-23 09:00N 60°42' E 005°06'0 0.0 230 / 13998.4 1.0 6.8 6.5
2015-Mar-23 06:00N 60°42' E 005°06'0 0.0 190 / 20998.4 0.5 6.0 5.8
2015-Mar-23 03:00N 60°42' E 005°06'0 0.0 170 / 191001.0 0.5 5.8 5.6
2015-Mar-23 00:00N 60°42' E 005°06'0 0.0 170 / 211004.1 0.5 5.6 5.6
2015-Mar-22 21:00N 60°42' E 005°06'0 0.0 160 / 191007.5 0.5 5.2 5.2
2015-Mar-22 18:00N 60°42' E 005°06'0 0.0 160 / 191010.9 0.5 4.5 4.5
2015-Mar-22 15:00N 60°42' E 005°06'0 0.0 160 / 211013.7 0.5 3.3 2.7
2015-Mar-22 12:10N 60°42' E 005°06'0 0.0 160 / 201017.5 0.5 2.7 2.1
2015-Mar-22 09:00N 60°42' E 005°06'0 0.0 150 / 161020.5 0.5 1.5 1.3
2015-Mar-22 06:00N 60°42' E 005°06'0 0.0 170 / 161021.5 0.5 3.8 3.0
2015-Mar-22 03:00N 60°42' E 005°06'0 0.0 200 / 131022.9 0.5 5.0 3.7
2015-Mar-22 00:00N 60°42' E 005°06'0 0.0 160 / 211025.4 0.5 2.8-1.5
2015-Mar-21 21:10N 60°42' E 005°06'0 0.0 160 / 151026.7 1.0 3.9-6.1
2015-Mar-21 18:00N 60°42' E 005°06'0 0.0 160 / 101027.9 1.0 4.4-6.1
2015-Mar-21 15:00N 60°42' E 005°06'0 0.0 130 / 61027.4 0.5 5.1-12.6
2015-Mar-21 12:00N 60°42' E 005°06'0 0.0 110 / 81026.9 1.0 5.4-14.5
2015-Mar-21 09:00N 60°42' E 005°06'0 0.0 090 / 51025.6 1.0 6.1-7.1
2015-Mar-21 06:00N 60°42' E 005°06'0 0.0 040 / 101022.7 0.5 3.7-2.5
2015-Mar-21 03:00N 60°42' E 005°06'0 0.0 020 / 151018.4 0.5 4.4-1.0
2015-Mar-21 00:00N 60°42' E 005°06'0 0.0 010 / 131015.9 0.5 4.6 1.7
2015-Mar-20 21:10N 60°42' E 005°06'0 0.0 010 / 101014.0 1.0 5.3 3.2
2015-Mar-20 18:00N 60°42' E 005°06'0 0.0 010 / 71012.2 1.0 5.9 3.9
2015-Mar-20 15:00N 60°42' E 005°06'0 0.0 110 / 71011.8 0.5 5.8 5.8
2015-Mar-20 12:00N 60°42' E 005°06'0 0.0 120 / 81013.7 0.5 5.8 5.8
2015-Mar-20 09:00N 60°42' E 005°06'0 0.0 120 / 111016.3 0.5 5.2 5.2
2015-Mar-20 06:00N 60°42' E 005°06'0 0.0 230 / 71019.0 0.5 6.1 6.1
2015-Mar-20 03:00N 60°42' E 005°06'0 0.0 160 / 101020.9 0.5 5.3 5.3
2015-Mar-20 00:00N 60°42' E 005°06'0 0.0 200 / 71023.9 0.5 5.9 5.9
2015-Mar-19 21:00N 60°42' E 005°06'0 0.0 150 / 101026.0 0.5 5.4 5.4
2015-Mar-19 18:00N 60°42' E 005°06'0 0.0 190 / 111027.4 0.5 5.6 5.5
2015-Mar-19 15:00N 60°42' E 005°06'0 0.0 220 / 81029.0 0.5 6.2 6.2
2015-Mar-19 09:00N 60°42' E 005°06'   190 / 81031.6 1.0 5.5 5.2

Dump ship's entire track history